sensor_id;sensor_type;location;lat;lon;timestamp;temperature;humidity
52675;DHT22;38569;52.722;6.440;2023-04-15T00:01:24;6.40;99.90
52675;DHT22;38569;52.722;6.440;2023-04-15T00:03:51;6.30;99.90
52675;DHT22;38569;52.722;6.440;2023-04-15T00:06:17;6.30;99.90
52675;DHT22;38569;52.722;6.440;2023-04-15T00:08:44;6.30;99.90
52675;DHT22;38569;52.722;6.440;2023-04-15T00:11:10;6.20;99.90
52675;DHT22;38569;52.722;6.440;2023-04-15T00:13:37;6.20;99.90
52675;DHT22;38569;52.722;6.440;2023-04-15T00:16:05;6.10;99.90
52675;DHT22;38569;52.722;6.440;2023-04-15T00:18:31;6.10;99.90
52675;DHT22;38569;52.722;6.440;2023-04-15T00:20:57;6.00;99.90
52675;DHT22;38569;52.722;6.440;2023-04-15T00:23:23;6.00;99.90
52675;DHT22;38569;52.722;6.440;2023-04-15T00:25:49;5.90;99.90
52675;DHT22;38569;52.722;6.440;2023-04-15T00:28:15;5.90;99.90
52675;DHT22;38569;52.722;6.440;2023-04-15T00:30:42;5.90;99.90
52675;DHT22;38569;52.722;6.440;2023-04-15T00:33:08;5.90;99.90
52675;DHT22;38569;52.722;6.440;2023-04-15T00:35:34;5.80;99.90
52675;DHT22;38569;52.722;6.440;2023-04-15T00:38:02;5.80;99.90
52675;DHT22;38569;52.722;6.440;2023-04-15T00:40:28;5.80;99.90
52675;DHT22;38569;52.722;6.440;2023-04-15T00:42:53;5.80;99.90
52675;DHT22;38569;52.722;6.440;2023-04-15T00:45:19;5.80;99.90
52675;DHT22;38569;52.722;6.440;2023-04-15T00:47:45;5.70;99.90
52675;DHT22;38569;52.722;6.440;2023-04-15T00:50:12;5.70;99.90
52675;DHT22;38569;52.722;6.440;2023-04-15T00:52:39;5.70;99.90
52675;DHT22;38569;52.722;6.440;2023-04-15T00:55:06;5.70;99.90
52675;DHT22;38569;52.722;6.440;2023-04-15T00:57:32;5.60;99.90
52675;DHT22;38569;52.722;6.440;2023-04-15T00:59:59;5.60;99.90
52675;DHT22;38569;52.722;6.440;2023-04-15T01:02:25;5.60;99.90
52675;DHT22;38569;52.722;6.440;2023-04-15T01:04:51;5.60;99.90
52675;DHT22;38569;52.722;6.440;2023-04-15T01:07:17;5.60;99.90
52675;DHT22;38569;52.722;6.440;2023-04-15T01:09:43;5.50;99.90
52675;DHT22;38569;52.722;6.440;2023-04-15T01:12:11;5.50;99.90
52675;DHT22;38569;52.722;6.440;2023-04-15T01:14:39;5.50;99.90
52675;DHT22;38569;52.722;6.440;2023-04-15T01:17:05;5.50;99.90
52675;DHT22;38569;52.722;6.440;2023-04-15T01:19:32;5.40;99.90
52675;DHT22;38569;52.722;6.440;2023-04-15T01:21:58;5.40;99.90
52675;DHT22;38569;52.722;6.440;2023-04-15T01:24:25;5.40;99.90
52675;DHT22;38569;52.722;6.440;2023-04-15T01:26:52;5.40;99.90
52675;DHT22;38569;52.722;6.440;2023-04-15T01:29:18;5.30;99.90
52675;DHT22;38569;52.722;6.440;2023-04-15T01:31:51;5.40;99.90
52675;DHT22;38569;52.722;6.440;2023-04-15T01:34:17;5.40;99.90
52675;DHT22;38569;52.722;6.440;2023-04-15T01:36:43;5.40;99.90
52675;DHT22;38569;52.722;6.440;2023-04-15T01:39:09;5.30;99.90
52675;DHT22;38569;52.722;6.440;2023-04-15T01:41:34;5.40;99.90
52675;DHT22;38569;52.722;6.440;2023-04-15T01:44:00;5.40;99.90
52675;DHT22;38569;52.722;6.440;2023-04-15T01:46:26;5.30;99.90
52675;DHT22;38569;52.722;6.440;2023-04-15T01:48:52;5.30;99.90
52675;DHT22;38569;52.722;6.440;2023-04-15T01:51:18;5.30;99.90
52675;DHT22;38569;52.722;6.440;2023-04-15T01:53:44;5.30;99.90
52675;DHT22;38569;52.722;6.440;2023-04-15T01:56:10;5.30;99.90
52675;DHT22;38569;52.722;6.440;2023-04-15T01:58:36;5.30;99.90
52675;DHT22;38569;52.722;6.440;2023-04-15T02:01:02;5.20;99.90
52675;DHT22;38569;52.722;6.440;2023-04-15T02:03:29;5.20;99.90
52675;DHT22;38569;52.722;6.440;2023-04-15T02:05:54;5.20;99.90
52675;DHT22;38569;52.722;6.440;2023-04-15T02:08:21;5.20;99.90
52675;DHT22;38569;52.722;6.440;2023-04-15T02:10:46;5.10;99.90
52675;DHT22;38569;52.722;6.440;2023-04-15T02:13:12;5.10;99.90
52675;DHT22;38569;52.722;6.440;2023-04-15T02:15:38;5.10;99.90
52675;DHT22;38569;52.722;6.440;2023-04-15T02:18:04;5.10;99.90
52675;DHT22;38569;52.722;6.440;2023-04-15T02:20:30;5.00;99.90
52675;DHT22;38569;52.722;6.440;2023-04-15T02:22:56;5.00;99.90
52675;DHT22;38569;52.722;6.440;2023-04-15T02:25:22;5.00;99.90
52675;DHT22;38569;52.722;6.440;2023-04-15T02:27:48;5.00;99.90
52675;DHT22;38569;52.722;6.440;2023-04-15T02:30:13;4.90;99.90
52675;DHT22;38569;52.722;6.440;2023-04-15T02:32:40;4.90;99.90
52675;DHT22;38569;52.722;6.440;2023-04-15T02:35:08;4.80;99.90
52675;DHT22;38569;52.722;6.440;2023-04-15T02:37:37;4.90;99.90
52675;DHT22;38569;52.722;6.440;2023-04-15T02:40:09;4.80;99.90
52675;DHT22;38569;52.722;6.440;2023-04-15T02:42:40;4.70;99.90
52675;DHT22;38569;52.722;6.440;2023-04-15T02:45:07;4.70;99.90
52675;DHT22;38569;52.722;6.440;2023-04-15T02:47:33;4.70;99.90
52675;DHT22;38569;52.722;6.440;2023-04-15T02:50:03;4.60;99.90
52675;DHT22;38569;52.722;6.440;2023-04-15T02:52:29;4.60;99.90
52675;DHT22;38569;52.722;6.440;2023-04-15T02:54:55;4.60;99.90
52675;DHT22;38569;52.722;6.440;2023-04-15T02:57:26;4.50;99.90
52675;DHT22;38569;52.722;6.440;2023-04-15T02:59:53;4.50;99.90
52675;DHT22;38569;52.722;6.440;2023-04-15T03:02:18;4.40;99.90
52675;DHT22;38569;52.722;6.440;2023-04-15T03:04:44;4.50;99.90
52675;DHT22;38569;52.722;6.440;2023-04-15T03:07:10;4.40;99.90
52675;DHT22;38569;52.722;6.440;2023-04-15T03:09:36;4.40;99.90
52675;DHT22;38569;52.722;6.440;2023-04-15T03:12:04;4.50;99.90
52675;DHT22;38569;52.722;6.440;2023-04-15T03:14:29;4.50;99.90
52675;DHT22;38569;52.722;6.440;2023-04-15T03:16:55;4.50;99.90
52675;DHT22;38569;52.722;6.440;2023-04-15T03:19:21;4.50;99.90
52675;DHT22;38569;52.722;6.440;2023-04-15T03:21:47;4.50;99.90
52675;DHT22;38569;52.722;6.440;2023-04-15T03:24:13;4.50;99.90
52675;DHT22;38569;52.722;6.440;2023-04-15T03:26:38;4.50;99.90
52675;DHT22;38569;52.722;6.440;2023-04-15T03:29:04;4.40;99.90
52675;DHT22;38569;52.722;6.440;2023-04-15T03:31:30;4.40;99.90
52675;DHT22;38569;52.722;6.440;2023-04-15T03:33:55;4.40;99.90
52675;DHT22;38569;52.722;6.440;2023-04-15T03:36:21;4.30;99.90
52675;DHT22;38569;52.722;6.440;2023-04-15T03:38:47;4.30;99.90
52675;DHT22;38569;52.722;6.440;2023-04-15T03:41:13;4.30;99.90
52675;DHT22;38569;52.722;6.440;2023-04-15T03:43:39;4.30;99.90
52675;DHT22;38569;52.722;6.440;2023-04-15T03:46:05;4.20;99.90
52675;DHT22;38569;52.722;6.440;2023-04-15T03:48:31;4.30;99.90
52675;DHT22;38569;52.722;6.440;2023-04-15T03:50:57;4.30;99.90
52675;DHT22;38569;52.722;6.440;2023-04-15T03:53:22;4.20;99.90
52675;DHT22;38569;52.722;6.440;2023-04-15T03:55:48;4.30;99.90
52675;DHT22;38569;52.722;6.440;2023-04-15T03:58:14;4.30;99.90
52675;DHT22;38569;52.722;6.440;2023-04-15T04:00:45;4.20;99.90
52675;DHT22;38569;52.722;6.440;2023-04-15T04:03:11;4.20;99.90
52675;DHT22;38569;52.722;6.440;2023-04-15T04:05:37;4.20;99.90
52675;DHT22;38569;52.722;6.440;2023-04-15T04:08:03;4.30;99.90
52675;DHT22;38569;52.722;6.440;2023-04-15T04:10:29;4.20;99.90
52675;DHT22;38569;52.722;6.440;2023-04-15T04:12:55;4.10;99.90
52675;DHT22;38569;52.722;6.440;2023-04-15T04:15:20;4.00;99.90
52675;DHT22;38569;52.722;6.440;2023-04-15T04:17:46;4.00;99.90
52675;DHT22;38569;52.722;6.440;2023-04-15T04:20:12;3.90;99.90
52675;DHT22;38569;52.722;6.440;2023-04-15T04:22:38;3.80;99.90
52675;DHT22;38569;52.722;6.440;2023-04-15T04:25:05;3.70;99.90
52675;DHT22;38569;52.722;6.440;2023-04-15T04:27:31;3.70;99.90
52675;DHT22;38569;52.722;6.440;2023-04-15T04:29:57;3.70;99.90
52675;DHT22;38569;52.722;6.440;2023-04-15T04:32:22;3.70;99.90
52675;DHT22;38569;52.722;6.440;2023-04-15T04:34:48;3.70;99.90
52675;DHT22;38569;52.722;6.440;2023-04-15T04:37:14;3.70;99.90
52675;DHT22;38569;52.722;6.440;2023-04-15T04:39:40;3.80;99.90
52675;DHT22;38569;52.722;6.440;2023-04-15T04:42:05;3.80;99.90
52675;DHT22;38569;52.722;6.440;2023-04-15T04:44:31;3.90;99.90
52675;DHT22;38569;52.722;6.440;2023-04-15T04:46:57;4.00;99.90
52675;DHT22;38569;52.722;6.440;2023-04-15T04:49:22;4.00;99.90
52675;DHT22;38569;52.722;6.440;2023-04-15T04:51:48;4.10;99.90
52675;DHT22;38569;52.722;6.440;2023-04-15T04:54:14;4.00;99.90
52675;DHT22;38569;52.722;6.440;2023-04-15T04:56:40;4.10;99.90
52675;DHT22;38569;52.722;6.440;2023-04-15T04:59:06;4.10;99.90
52675;DHT22;38569;52.722;6.440;2023-04-15T05:01:32;4.10;99.90
52675;DHT22;38569;52.722;6.440;2023-04-15T05:03:58;4.10;99.90
52675;DHT22;38569;52.722;6.440;2023-04-15T05:06:24;4.10;99.90
52675;DHT22;38569;52.722;6.440;2023-04-15T05:08:50;4.10;99.90
52675;DHT22;38569;52.722;6.440;2023-04-15T05:11:16;4.10;99.90
52675;DHT22;38569;52.722;6.440;2023-04-15T05:13:42;4.10;99.90
52675;DHT22;38569;52.722;6.440;2023-04-15T05:16:07;4.10;99.90
52675;DHT22;38569;52.722;6.440;2023-04-15T05:18:33;4.00;99.90
52675;DHT22;38569;52.722;6.440;2023-04-15T05:21:00;4.00;99.90
52675;DHT22;38569;52.722;6.440;2023-04-15T05:23:27;4.00;99.90
52675;DHT22;38569;52.722;6.440;2023-04-15T05:25:52;4.00;99.90
52675;DHT22;38569;52.722;6.440;2023-04-15T05:28:18;4.00;99.90
52675;DHT22;38569;52.722;6.440;2023-04-15T05:30:44;4.00;99.90
52675;DHT22;38569;52.722;6.440;2023-04-15T05:33:10;4.00;99.90
52675;DHT22;38569;52.722;6.440;2023-04-15T05:35:36;4.00;99.90
52675;DHT22;38569;52.722;6.440;2023-04-15T05:38:02;4.10;99.90
52675;DHT22;38569;52.722;6.440;2023-04-15T05:40:29;4.10;99.90
52675;DHT22;38569;52.722;6.440;2023-04-15T05:42:55;4.10;99.90
52675;DHT22;38569;52.722;6.440;2023-04-15T05:45:21;4.20;99.90
52675;DHT22;38569;52.722;6.440;2023-04-15T05:47:47;4.40;99.90
52675;DHT22;38569;52.722;6.440;2023-04-15T05:50:15;4.40;99.90
52675;DHT22;38569;52.722;6.440;2023-04-15T05:52:41;4.50;99.90
52675;DHT22;38569;52.722;6.440;2023-04-15T05:55:07;4.50;99.90
52675;DHT22;38569;52.722;6.440;2023-04-15T05:57:32;4.60;99.90
52675;DHT22;38569;52.722;6.440;2023-04-15T05:59:58;4.70;99.90
52675;DHT22;38569;52.722;6.440;2023-04-15T06:02:24;4.70;99.90
52675;DHT22;38569;52.722;6.440;2023-04-15T06:04:49;4.90;99.90
52675;DHT22;38569;52.722;6.440;2023-04-15T06:07:15;5.00;99.90
52675;DHT22;38569;52.722;6.440;2023-04-15T06:09:41;5.10;99.90
52675;DHT22;38569;52.722;6.440;2023-04-15T06:12:06;5.20;99.90
52675;DHT22;38569;52.722;6.440;2023-04-15T06:14:37;5.30;99.90
52675;DHT22;38569;52.722;6.440;2023-04-15T06:17:03;5.40;99.90
52675;DHT22;38569;52.722;6.440;2023-04-15T06:19:28;5.50;99.90
52675;DHT22;38569;52.722;6.440;2023-04-15T06:21:54;5.60;99.90
52675;DHT22;38569;52.722;6.440;2023-04-15T06:24:20;5.70;99.90
52675;DHT22;38569;52.722;6.440;2023-04-15T06:26:52;5.70;99.90
52675;DHT22;38569;52.722;6.440;2023-04-15T06:29:17;5.80;99.90
52675;DHT22;38569;52.722;6.440;2023-04-15T06:31:43;5.90;99.90
52675;DHT22;38569;52.722;6.440;2023-04-15T06:34:09;6.00;99.90
52675;DHT22;38569;52.722;6.440;2023-04-15T06:36:35;6.20;99.90
52675;DHT22;38569;52.722;6.440;2023-04-15T06:39:01;6.30;99.90
52675;DHT22;38569;52.722;6.440;2023-04-15T06:41:27;6.50;99.90
52675;DHT22;38569;52.722;6.440;2023-04-15T06:43:52;6.60;99.90
52675;DHT22;38569;52.722;6.440;2023-04-15T06:46:18;6.80;99.90
52675;DHT22;38569;52.722;6.440;2023-04-15T06:48:44;6.90;99.90
52675;DHT22;38569;52.722;6.440;2023-04-15T06:51:09;7.10;99.90
52675;DHT22;38569;52.722;6.440;2023-04-15T06:53:35;7.20;99.90
52675;DHT22;38569;52.722;6.440;2023-04-15T06:56:07;7.40;99.90
52675;DHT22;38569;52.722;6.440;2023-04-15T06:58:32;7.60;99.90
52675;DHT22;38569;52.722;6.440;2023-04-15T07:00:58;7.80;99.90
52675;DHT22;38569;52.722;6.440;2023-04-15T07:03:24;7.90;99.90
52675;DHT22;38569;52.722;6.440;2023-04-15T07:05:50;7.90;99.90
52675;DHT22;38569;52.722;6.440;2023-04-15T07:08:15;8.10;99.90
52675;DHT22;38569;52.722;6.440;2023-04-15T07:10:41;8.20;99.90
52675;DHT22;38569;52.722;6.440;2023-04-15T07:13:07;8.20;99.90
52675;DHT22;38569;52.722;6.440;2023-04-15T07:15:33;8.40;99.90
52675;DHT22;38569;52.722;6.440;2023-04-15T07:17:59;8.50;99.90
52675;DHT22;38569;52.722;6.440;2023-04-15T07:20:24;8.50;99.90
52675;DHT22;38569;52.722;6.440;2023-04-15T07:22:50;8.60;99.90
52675;DHT22;38569;52.722;6.440;2023-04-15T07:25:16;8.80;99.90
52675;DHT22;38569;52.722;6.440;2023-04-15T07:27:42;8.90;99.90
52675;DHT22;38569;52.722;6.440;2023-04-15T07:30:08;9.00;99.90
52675;DHT22;38569;52.722;6.440;2023-04-15T07:32:35;9.10;99.90
52675;DHT22;38569;52.722;6.440;2023-04-15T07:35:01;9.20;99.90
52675;DHT22;38569;52.722;6.440;2023-04-15T07:37:28;9.20;99.90
52675;DHT22;38569;52.722;6.440;2023-04-15T07:39:54;9.20;99.90
52675;DHT22;38569;52.722;6.440;2023-04-15T07:42:20;9.30;99.90
52675;DHT22;38569;52.722;6.440;2023-04-15T07:44:46;9.30;99.90
52675;DHT22;38569;52.722;6.440;2023-04-15T07:47:12;9.30;99.90
52675;DHT22;38569;52.722;6.440;2023-04-15T07:49:38;9.30;99.90
52675;DHT22;38569;52.722;6.440;2023-04-15T07:52:03;9.50;99.90
52675;DHT22;38569;52.722;6.440;2023-04-15T07:54:29;9.50;99.90
52675;DHT22;38569;52.722;6.440;2023-04-15T07:56:55;9.50;99.90
52675;DHT22;38569;52.722;6.440;2023-04-15T07:59:20;9.60;99.90
52675;DHT22;38569;52.722;6.440;2023-04-15T08:02:01;9.70;99.90
52675;DHT22;38569;52.722;6.440;2023-04-15T08:04:27;9.70;99.90
52675;DHT22;38569;52.722;6.440;2023-04-15T08:06:53;9.80;99.90
52675;DHT22;38569;52.722;6.440;2023-04-15T08:09:19;9.90;99.90
52675;DHT22;38569;52.722;6.440;2023-04-15T08:11:47;10.00;99.90
52675;DHT22;38569;52.722;6.440;2023-04-15T08:14:13;9.90;99.90
52675;DHT22;38569;52.722;6.440;2023-04-15T08:16:39;9.90;99.90
52675;DHT22;38569;52.722;6.440;2023-04-15T08:19:05;10.00;99.90
52675;DHT22;38569;52.722;6.440;2023-04-15T08:21:30;10.00;99.90
52675;DHT22;38569;52.722;6.440;2023-04-15T08:23:56;9.90;99.90
52675;DHT22;38569;52.722;6.440;2023-04-15T08:26:22;10.10;99.90
52675;DHT22;38569;52.722;6.440;2023-04-15T08:28:48;10.10;99.90
52675;DHT22;38569;52.722;6.440;2023-04-15T08:31:15;10.20;99.90
52675;DHT22;38569;52.722;6.440;2023-04-15T08:33:41;10.20;99.90
52675;DHT22;38569;52.722;6.440;2023-04-15T08:36:06;10.30;99.90
52675;DHT22;38569;52.722;6.440;2023-04-15T08:38:33;10.30;99.90
52675;DHT22;38569;52.722;6.440;2023-04-15T08:41:02;10.40;99.90
52675;DHT22;38569;52.722;6.440;2023-04-15T08:43:33;10.60;99.90
52675;DHT22;38569;52.722;6.440;2023-04-15T08:45:59;10.50;99.90
52675;DHT22;38569;52.722;6.440;2023-04-15T08:48:31;10.60;99.90
52675;DHT22;38569;52.722;6.440;2023-04-15T08:50:58;10.60;99.90
52675;DHT22;38569;52.722;6.440;2023-04-15T08:53:24;10.50;99.90
52675;DHT22;38569;52.722;6.440;2023-04-15T08:55:51;10.60;99.90
52675;DHT22;38569;52.722;6.440;2023-04-15T08:58:18;10.80;99.90
52675;DHT22;38569;52.722;6.440;2023-04-15T09:00:44;11.10;99.90
52675;DHT22;38569;52.722;6.440;2023-04-15T09:03:10;11.20;99.90
52675;DHT22;38569;52.722;6.440;2023-04-15T09:05:37;11.20;99.90
52675;DHT22;38569;52.722;6.440;2023-04-15T09:08:04;11.10;99.90
52675;DHT22;38569;52.722;6.440;2023-04-15T09:10:31;11.00;99.90
52675;DHT22;38569;52.722;6.440;2023-04-15T09:12:57;11.00;99.90
52675;DHT22;38569;52.722;6.440;2023-04-15T09:15:26;10.90;99.90
52675;DHT22;38569;52.722;6.440;2023-04-15T09:17:54;10.90;99.90
52675;DHT22;38569;52.722;6.440;2023-04-15T09:20:21;10.80;99.90
52675;DHT22;38569;52.722;6.440;2023-04-15T09:22:48;10.70;99.90
52675;DHT22;38569;52.722;6.440;2023-04-15T09:27:50;10.70;99.90
52675;DHT22;38569;52.722;6.440;2023-04-15T09:30:16;10.60;99.90
52675;DHT22;38569;52.722;6.440;2023-04-15T09:32:56;10.60;99.90
52675;DHT22;38569;52.722;6.440;2023-04-15T09:35:23;10.40;99.90
52675;DHT22;38569;52.722;6.440;2023-04-15T09:37:50;10.60;99.90
52675;DHT22;38569;52.722;6.440;2023-04-15T09:40:39;10.60;99.90
52675;DHT22;38569;52.722;6.440;2023-04-15T09:43:06;10.60;99.90
52675;DHT22;38569;52.722;6.440;2023-04-15T09:45:34;10.70;99.90
52675;DHT22;38569;52.722;6.440;2023-04-15T09:48:23;10.70;99.90
52675;DHT22;38569;52.722;6.440;2023-04-15T09:50:51;10.70;99.90
52675;DHT22;38569;52.722;6.440;2023-04-15T09:53:23;10.60;99.90
52675;DHT22;38569;52.722;6.440;2023-04-15T09:55:57;10.40;99.90
52675;DHT22;38569;52.722;6.440;2023-04-15T09:58:25;10.30;99.90
52675;DHT22;38569;52.722;6.440;2023-04-15T10:00:52;10.40;99.90
52675;DHT22;38569;52.722;6.440;2023-04-15T10:03:20;10.30;99.90
52675;DHT22;38569;52.722;6.440;2023-04-15T10:05:51;10.20;99.90
52675;DHT22;38569;52.722;6.440;2023-04-15T10:08:19;10.20;99.90
52675;DHT22;38569;52.722;6.440;2023-04-15T10:10:46;10.20;99.90
52675;DHT22;38569;52.722;6.440;2023-04-15T10:13:14;10.10;99.90
52675;DHT22;38569;52.722;6.440;2023-04-15T10:15:43;10.30;99.90
52675;DHT22;38569;52.722;6.440;2023-04-15T10:18:13;10.40;99.90
52675;DHT22;38569;52.722;6.440;2023-04-15T10:20:40;10.60;99.90
52675;DHT22;38569;52.722;6.440;2023-04-15T10:23:07;10.70;99.90
52675;DHT22;38569;52.722;6.440;2023-04-15T10:25:34;10.70;99.90
52675;DHT22;38569;52.722;6.440;2023-04-15T10:28:00;10.70;99.90
52675;DHT22;38569;52.722;6.440;2023-04-15T10:30:27;10.80;99.90
52675;DHT22;38569;52.722;6.440;2023-04-15T10:32:53;10.80;99.90
52675;DHT22;38569;52.722;6.440;2023-04-15T10:35:20;10.60;99.90
52675;DHT22;38569;52.722;6.440;2023-04-15T10:37:46;10.60;99.90
52675;DHT22;38569;52.722;6.440;2023-04-15T10:40:29;10.60;99.90
52675;DHT22;38569;52.722;6.440;2023-04-15T10:43:01;10.80;99.90
52675;DHT22;38569;52.722;6.440;2023-04-15T10:45:34;10.90;99.90
52675;DHT22;38569;52.722;6.440;2023-04-15T10:48:06;11.00;99.90
52675;DHT22;38569;52.722;6.440;2023-04-15T10:50:32;11.10;99.90
52675;DHT22;38569;52.722;6.440;2023-04-15T10:52:58;11.20;99.90
52675;DHT22;38569;52.722;6.440;2023-04-15T10:55:31;11.10;99.90
52675;DHT22;38569;52.722;6.440;2023-04-15T10:57:59;11.30;99.90
52675;DHT22;38569;52.722;6.440;2023-04-15T11:00:29;11.30;99.90
52675;DHT22;38569;52.722;6.440;2023-04-15T11:03:06;11.20;99.90
52675;DHT22;38569;52.722;6.440;2023-04-15T11:08:04;11.40;99.90
52675;DHT22;38569;52.722;6.440;2023-04-15T11:15:32;11.50;99.90
52675;DHT22;38569;52.722;6.440;2023-04-15T11:18:07;11.20;99.90
52675;DHT22;38569;52.722;6.440;2023-04-15T11:20:33;11.10;99.90
52675;DHT22;38569;52.722;6.440;2023-04-15T11:22:59;11.00;99.90
52675;DHT22;38569;52.722;6.440;2023-04-15T11:25:26;10.90;99.90
52675;DHT22;38569;52.722;6.440;2023-04-15T11:27:53;10.90;99.90
52675;DHT22;38569;52.722;6.440;2023-04-15T11:30:27;10.90;99.90
52675;DHT22;38569;52.722;6.440;2023-04-15T11:33:01;10.80;99.90
52675;DHT22;38569;52.722;6.440;2023-04-15T11:35:27;10.90;99.90
52675;DHT22;38569;52.722;6.440;2023-04-15T11:37:53;10.70;99.90
52675;DHT22;38569;52.722;6.440;2023-04-15T11:40:25;10.70;99.90
52675;DHT22;38569;52.722;6.440;2023-04-15T11:43:11;10.70;99.90
52675;DHT22;38569;52.722;6.440;2023-04-15T11:45:53;10.90;99.90
52675;DHT22;38569;52.722;6.440;2023-04-15T11:48:24;10.90;99.90
52675;DHT22;38569;52.722;6.440;2023-04-15T11:50:58;10.90;99.90
52675;DHT22;38569;52.722;6.440;2023-04-15T11:56:16;10.80;99.90
52675;DHT22;38569;52.722;6.440;2023-04-15T11:58:42;10.70;99.90
52675;DHT22;38569;52.722;6.440;2023-04-15T12:01:09;10.60;99.90
52675;DHT22;38569;52.722;6.440;2023-04-15T12:03:40;10.60;99.90
52675;DHT22;38569;52.722;6.440;2023-04-15T12:06:23;10.60;99.90
52675;DHT22;38569;52.722;6.440;2023-04-15T12:14:23;10.70;99.90
52675;DHT22;38569;52.722;6.440;2023-04-15T12:16:51;10.50;99.90
52675;DHT22;38569;52.722;6.440;2023-04-15T12:19:35;10.40;99.90
52675;DHT22;38569;52.722;6.440;2023-04-15T12:24:32;10.50;99.90
52675;DHT22;38569;52.722;6.440;2023-04-15T12:27:05;10.60;99.90
52675;DHT22;38569;52.722;6.440;2023-04-15T12:29:33;10.70;99.90
52675;DHT22;38569;52.722;6.440;2023-04-15T12:32:06;10.60;99.90
52675;DHT22;38569;52.722;6.440;2023-04-15T12:34:36;10.80;99.90
52675;DHT22;38569;52.722;6.440;2023-04-15T12:37:04;10.90;99.90
52675;DHT22;38569;52.722;6.440;2023-04-15T12:39:34;10.90;99.90
52675;DHT22;38569;52.722;6.440;2023-04-15T12:42:00;11.00;99.90
52675;DHT22;38569;52.722;6.440;2023-04-15T12:44:26;11.00;99.90
52675;DHT22;38569;52.722;6.440;2023-04-15T12:46:53;10.90;99.90
52675;DHT22;38569;52.722;6.440;2023-04-15T12:49:20;10.80;99.90
52675;DHT22;38569;52.722;6.440;2023-04-15T12:51:50;10.70;99.90
52675;DHT22;38569;52.722;6.440;2023-04-15T12:54:17;10.60;99.90
52675;DHT22;38569;52.722;6.440;2023-04-15T12:56:45;10.50;99.90
52675;DHT22;38569;52.722;6.440;2023-04-15T12:59:11;10.50;99.90
52675;DHT22;38569;52.722;6.440;2023-04-15T13:01:39;10.60;99.90
52675;DHT22;38569;52.722;6.440;2023-04-15T13:04:10;10.70;99.90
52675;DHT22;38569;52.722;6.440;2023-04-15T13:06:36;10.60;99.90
52675;DHT22;38569;52.722;6.440;2023-04-15T13:09:03;10.50;99.90
52675;DHT22;38569;52.722;6.440;2023-04-15T13:11:29;10.60;99.90
52675;DHT22;38569;52.722;6.440;2023-04-15T13:14:03;10.70;99.90
52675;DHT22;38569;52.722;6.440;2023-04-15T13:16:30;10.70;99.90
52675;DHT22;38569;52.722;6.440;2023-04-15T13:18:57;10.60;99.90
52675;DHT22;38569;52.722;6.440;2023-04-15T13:21:23;10.60;99.90
52675;DHT22;38569;52.722;6.440;2023-04-15T13:23:49;10.40;99.90
52675;DHT22;38569;52.722;6.440;2023-04-15T13:26:17;10.40;99.90
52675;DHT22;38569;52.722;6.440;2023-04-15T13:28:43;10.30;99.90
52675;DHT22;38569;52.722;6.440;2023-04-15T13:31:09;10.50;99.90
52675;DHT22;38569;52.722;6.440;2023-04-15T13:33:34;10.40;99.90
52675;DHT22;38569;52.722;6.440;2023-04-15T13:36:01;10.60;99.90
52675;DHT22;38569;52.722;6.440;2023-04-15T13:38:26;10.60;99.90
52675;DHT22;38569;52.722;6.440;2023-04-15T13:40:52;10.50;99.90
52675;DHT22;38569;52.722;6.440;2023-04-15T13:43:18;10.30;99.90
52675;DHT22;38569;52.722;6.440;2023-04-15T13:45:45;10.30;99.90
52675;DHT22;38569;52.722;6.440;2023-04-15T13:48:11;10.50;99.90
52675;DHT22;38569;52.722;6.440;2023-04-15T13:50:36;10.50;99.90
52675;DHT22;38569;52.722;6.440;2023-04-15T13:53:02;10.60;99.90
52675;DHT22;38569;52.722;6.440;2023-04-15T13:55:28;10.30;99.90
52675;DHT22;38569;52.722;6.440;2023-04-15T13:57:54;10.30;99.90
52675;DHT22;38569;52.722;6.440;2023-04-15T14:00:20;10.20;99.90
52675;DHT22;38569;52.722;6.440;2023-04-15T14:02:47;10.10;99.90
52675;DHT22;38569;52.722;6.440;2023-04-15T14:05:12;10.20;99.90
52675;DHT22;38569;52.722;6.440;2023-04-15T14:07:38;10.20;99.90
52675;DHT22;38569;52.722;6.440;2023-04-15T14:10:04;10.10;99.90
52675;DHT22;38569;52.722;6.440;2023-04-15T14:12:30;10.00;99.90
52675;DHT22;38569;52.722;6.440;2023-04-15T14:14:56;9.90;99.90
52675;DHT22;38569;52.722;6.440;2023-04-15T14:17:22;9.80;99.90
52675;DHT22;38569;52.722;6.440;2023-04-15T14:19:47;9.70;99.90
52675;DHT22;38569;52.722;6.440;2023-04-15T14:22:13;9.70;99.90
52675;DHT22;38569;52.722;6.440;2023-04-15T14:24:39;9.60;99.90
52675;DHT22;38569;52.722;6.440;2023-04-15T14:27:05;9.50;99.90
52675;DHT22;38569;52.722;6.440;2023-04-15T14:29:31;9.50;99.90
52675;DHT22;38569;52.722;6.440;2023-04-15T14:31:57;9.50;99.90
52675;DHT22;38569;52.722;6.440;2023-04-15T14:34:23;9.60;99.90
52675;DHT22;38569;52.722;6.440;2023-04-15T14:36:50;9.60;99.90
52675;DHT22;38569;52.722;6.440;2023-04-15T14:39:18;9.50;99.90
52675;DHT22;38569;52.722;6.440;2023-04-15T14:41:44;9.60;99.90
52675;DHT22;38569;52.722;6.440;2023-04-15T14:44:10;9.50;99.90
52675;DHT22;38569;52.722;6.440;2023-04-15T14:46:37;9.50;99.90
52675;DHT22;38569;52.722;6.440;2023-04-15T14:49:03;9.50;99.90
52675;DHT22;38569;52.722;6.440;2023-04-15T14:51:30;9.40;99.90
52675;DHT22;38569;52.722;6.440;2023-04-15T14:53:56;9.40;99.90
52675;DHT22;38569;52.722;6.440;2023-04-15T14:56:25;9.30;99.90
52675;DHT22;38569;52.722;6.440;2023-04-15T14:58:51;9.20;99.90
52675;DHT22;38569;52.722;6.440;2023-04-15T15:01:19;9.20;99.90
52675;DHT22;38569;52.722;6.440;2023-04-15T15:03:45;9.20;99.90
52675;DHT22;38569;52.722;6.440;2023-04-15T15:06:11;9.10;99.90
52675;DHT22;38569;52.722;6.440;2023-04-15T15:08:37;9.10;99.90
52675;DHT22;38569;52.722;6.440;2023-04-15T15:11:02;9.00;99.90
52675;DHT22;38569;52.722;6.440;2023-04-15T15:13:28;8.90;99.90
52675;DHT22;38569;52.722;6.440;2023-04-15T15:15:54;8.90;99.90
52675;DHT22;38569;52.722;6.440;2023-04-15T15:18:19;8.90;99.90
52675;DHT22;38569;52.722;6.440;2023-04-15T15:20:46;8.90;99.90
52675;DHT22;38569;52.722;6.440;2023-04-15T15:23:12;8.90;99.90
52675;DHT22;38569;52.722;6.440;2023-04-15T15:25:37;8.90;99.90
52675;DHT22;38569;52.722;6.440;2023-04-15T15:28:03;8.80;99.90
52675;DHT22;38569;52.722;6.440;2023-04-15T15:30:30;8.80;99.90
52675;DHT22;38569;52.722;6.440;2023-04-15T15:32:55;8.80;99.90
52675;DHT22;38569;52.722;6.440;2023-04-15T15:35:21;8.80;99.90
52675;DHT22;38569;52.722;6.440;2023-04-15T15:37:48;8.80;99.90
52675;DHT22;38569;52.722;6.440;2023-04-15T15:40:13;8.80;99.90
52675;DHT22;38569;52.722;6.440;2023-04-15T15:42:39;8.80;99.90
52675;DHT22;38569;52.722;6.440;2023-04-15T15:45:06;8.80;99.90
52675;DHT22;38569;52.722;6.440;2023-04-15T15:47:32;8.80;99.90
52675;DHT22;38569;52.722;6.440;2023-04-15T15:49:59;8.80;99.90
52675;DHT22;38569;52.722;6.440;2023-04-15T15:52:25;8.80;99.90
52675;DHT22;38569;52.722;6.440;2023-04-15T15:54:51;8.80;99.90
52675;DHT22;38569;52.722;6.440;2023-04-15T15:57:17;8.70;99.90
52675;DHT22;38569;52.722;6.440;2023-04-15T15:59:42;8.80;99.90